sensor_id;sensor_type;location;lat;lon;timestamp;temperature;humidity
38860;DHT22;24609;48.316;16.174;2023-07-24T00:01:45;19.60;99.90
38860;DHT22;24609;48.316;16.174;2023-07-24T00:04:10;19.70;99.90
38860;DHT22;24609;48.316;16.174;2023-07-24T00:06:36;19.70;99.90
38860;DHT22;24609;48.316;16.174;2023-07-24T00:09:03;19.60;99.90
38860;DHT22;24609;48.316;16.174;2023-07-24T00:11:29;19.50;99.90
38860;DHT22;24609;48.316;16.174;2023-07-24T00:13:54;19.50;99.90
38860;DHT22;24609;48.316;16.174;2023-07-24T00:16:20;19.30;99.90
38860;DHT22;24609;48.316;16.174;2023-07-24T00:18:46;19.30;99.90
38860;DHT22;24609;48.316;16.174;2023-07-24T00:21:12;19.30;99.90
38860;DHT22;24609;48.316;16.174;2023-07-24T00:23:38;19.20;99.90
38860;DHT22;24609;48.316;16.174;2023-07-24T00:26:04;19.00;99.90
38860;DHT22;24609;48.316;16.174;2023-07-24T00:28:30;18.90;99.90
38860;DHT22;24609;48.316;16.174;2023-07-24T00:30:55;18.80;99.90
38860;DHT22;24609;48.316;16.174;2023-07-24T00:33:21;18.70;99.90
38860;DHT22;24609;48.316;16.174;2023-07-24T00:35:47;18.60;99.90
38860;DHT22;24609;48.316;16.174;2023-07-24T00:38:13;18.60;99.90
38860;DHT22;24609;48.316;16.174;2023-07-24T00:40:38;18.60;99.90
38860;DHT22;24609;48.316;16.174;2023-07-24T00:43:04;18.50;99.90
38860;DHT22;24609;48.316;16.174;2023-07-24T00:45:30;18.50;99.90
38860;DHT22;24609;48.316;16.174;2023-07-24T00:47:55;18.50;99.90
38860;DHT22;24609;48.316;16.174;2023-07-24T00:50:21;18.60;99.90
38860;DHT22;24609;48.316;16.174;2023-07-24T00:52:48;18.70;99.90
38860;DHT22;24609;48.316;16.174;2023-07-24T00:55:14;18.60;99.90
38860;DHT22;24609;48.316;16.174;2023-07-24T00:57:42;18.50;99.90
38860;DHT22;24609;48.316;16.174;2023-07-24T01:00:09;18.50;99.90
38860;DHT22;24609;48.316;16.174;2023-07-24T01:02:35;18.50;99.90
38860;DHT22;24609;48.316;16.174;2023-07-24T01:05:02;18.40;99.90
38860;DHT22;24609;48.316;16.174;2023-07-24T01:07:28;18.30;99.90
38860;DHT22;24609;48.316;16.174;2023-07-24T01:09:54;18.30;99.90
38860;DHT22;24609;48.316;16.174;2023-07-24T01:12:35;18.30;99.90
38860;DHT22;24609;48.316;16.174;2023-07-24T01:17:58;17.90;99.90
38860;DHT22;24609;48.316;16.174;2023-07-24T01:20:26;17.80;99.90
38860;DHT22;24609;48.316;16.174;2023-07-24T01:25:56;17.80;99.90
38860;DHT22;24609;48.316;16.174;2023-07-24T01:28:26;17.70;99.90
38860;DHT22;24609;48.316;16.174;2023-07-24T01:30:52;17.80;99.90
38860;DHT22;24609;48.316;16.174;2023-07-24T01:33:19;17.90;99.90
38860;DHT22;24609;48.316;16.174;2023-07-24T01:35:45;17.90;99.90
38860;DHT22;24609;48.316;16.174;2023-07-24T01:38:13;18.00;99.90
38860;DHT22;24609;48.316;16.174;2023-07-24T01:40:42;18.00;99.90
38860;DHT22;24609;48.316;16.174;2023-07-24T01:43:09;17.90;99.90
38860;DHT22;24609;48.316;16.174;2023-07-24T01:45:34;17.90;99.90
38860;DHT22;24609;48.316;16.174;2023-07-24T01:48:03;17.80;99.90
38860;DHT22;24609;48.316;16.174;2023-07-24T01:50:29;17.90;99.90
38860;DHT22;24609;48.316;16.174;2023-07-24T01:52:55;17.80;99.90
38860;DHT22;24609;48.316;16.174;2023-07-24T01:55:20;17.80;99.90
38860;DHT22;24609;48.316;16.174;2023-07-24T01:57:46;17.80;99.90
38860;DHT22;24609;48.316;16.174;2023-07-24T02:00:12;17.80;99.90
38860;DHT22;24609;48.316;16.174;2023-07-24T02:02:38;17.70;99.90
38860;DHT22;24609;48.316;16.174;2023-07-24T02:05:04;17.60;99.90
38860;DHT22;24609;48.316;16.174;2023-07-24T02:07:29;17.70;99.90
38860;DHT22;24609;48.316;16.174;2023-07-24T02:09:55;17.70;99.90
38860;DHT22;24609;48.316;16.174;2023-07-24T02:12:21;17.70;99.90
38860;DHT22;24609;48.316;16.174;2023-07-24T02:14:46;17.70;99.90
38860;DHT22;24609;48.316;16.174;2023-07-24T02:17:17;17.70;99.90
38860;DHT22;24609;48.316;16.174;2023-07-24T02:19:43;17.60;99.90
38860;DHT22;24609;48.316;16.174;2023-07-24T02:22:08;17.70;99.90
38860;DHT22;24609;48.316;16.174;2023-07-24T02:24:34;17.60;99.90
38860;DHT22;24609;48.316;16.174;2023-07-24T02:27:00;17.60;99.90
38860;DHT22;24609;48.316;16.174;2023-07-24T02:29:26;17.60;99.90
38860;DHT22;24609;48.316;16.174;2023-07-24T02:31:53;17.40;99.90
38860;DHT22;24609;48.316;16.174;2023-07-24T02:34:19;17.40;99.90
38860;DHT22;24609;48.316;16.174;2023-07-24T02:36:44;17.20;99.90
38860;DHT22;24609;48.316;16.174;2023-07-24T02:39:10;17.10;99.90
38860;DHT22;24609;48.316;16.174;2023-07-24T02:41:36;17.00;99.90
38860;DHT22;24609;48.316;16.174;2023-07-24T02:44:02;17.00;99.90
38860;DHT22;24609;48.316;16.174;2023-07-24T02:46:29;17.00;99.90
38860;DHT22;24609;48.316;16.174;2023-07-24T02:48:56;16.90;99.90
38860;DHT22;24609;48.316;16.174;2023-07-24T02:51:21;17.00;99.90
38860;DHT22;24609;48.316;16.174;2023-07-24T02:53:47;16.90;99.90
38860;DHT22;24609;48.316;16.174;2023-07-24T02:56:13;16.90;99.90
38860;DHT22;24609;48.316;16.174;2023-07-24T02:58:38;17.00;99.90
38860;DHT22;24609;48.316;16.174;2023-07-24T03:01:05;16.90;99.90
38860;DHT22;24609;48.316;16.174;2023-07-24T03:03:32;16.90;99.90
38860;DHT22;24609;48.316;16.174;2023-07-24T03:05:58;16.80;99.90
38860;DHT22;24609;48.316;16.174;2023-07-24T03:08:24;16.80;99.90
38860;DHT22;24609;48.316;16.174;2023-07-24T03:10:50;16.80;99.90
38860;DHT22;24609;48.316;16.174;2023-07-24T03:13:15;16.80;99.90
38860;DHT22;24609;48.316;16.174;2023-07-24T03:15:41;16.80;99.90
38860;DHT22;24609;48.316;16.174;2023-07-24T03:18:07;16.80;99.90
38860;DHT22;24609;48.316;16.174;2023-07-24T03:20:32;16.80;99.90
38860;DHT22;24609;48.316;16.174;2023-07-24T03:22:58;16.70;99.90
38860;DHT22;24609;48.316;16.174;2023-07-24T03:25:24;16.60;99.90
38860;DHT22;24609;48.316;16.174;2023-07-24T03:27:49;16.60;99.90
38860;DHT22;24609;48.316;16.174;2023-07-24T03:30:15;16.50;99.90
38860;DHT22;24609;48.316;16.174;2023-07-24T03:32:41;16.50;99.90
38860;DHT22;24609;48.316;16.174;2023-07-24T03:35:07;16.50;99.90
38860;DHT22;24609;48.316;16.174;2023-07-24T03:37:34;16.50;99.90
38860;DHT22;24609;48.316;16.174;2023-07-24T03:40:00;16.60;99.90
38860;DHT22;24609;48.316;16.174;2023-07-24T03:42:30;16.70;99.90
38860;DHT22;24609;48.316;16.174;2023-07-24T03:44:57;16.70;99.90
38860;DHT22;24609;48.316;16.174;2023-07-24T03:47:23;16.80;99.90
38860;DHT22;24609;48.316;16.174;2023-07-24T03:49:50;16.80;99.90
38860;DHT22;24609;48.316;16.174;2023-07-24T03:52:16;16.80;99.90
38860;DHT22;24609;48.316;16.174;2023-07-24T03:54:42;16.80;99.90
38860;DHT22;24609;48.316;16.174;2023-07-24T03:57:07;16.60;99.90
38860;DHT22;24609;48.316;16.174;2023-07-24T03:59:33;16.50;99.90
38860;DHT22;24609;48.316;16.174;2023-07-24T04:01:59;16.50;99.90
38860;DHT22;24609;48.316;16.174;2023-07-24T04:04:25;16.60;99.90
38860;DHT22;24609;48.316;16.174;2023-07-24T04:06:50;16.70;99.90
38860;DHT22;24609;48.316;16.174;2023-07-24T04:09:16;16.90;99.90
38860;DHT22;24609;48.316;16.174;2023-07-24T04:11:45;17.00;99.90
38860;DHT22;24609;48.316;16.174;2023-07-24T04:14:11;17.20;99.90
38860;DHT22;24609;48.316;16.174;2023-07-24T04:16:36;17.30;99.90
38860;DHT22;24609;48.316;16.174;2023-07-24T04:19:03;17.30;99.90
38860;DHT22;24609;48.316;16.174;2023-07-24T04:21:28;17.30;99.90
38860;DHT22;24609;48.316;16.174;2023-07-24T04:23:54;17.20;99.90
38860;DHT22;24609;48.316;16.174;2023-07-24T04:26:20;17.40;99.90
38860;DHT22;24609;48.316;16.174;2023-07-24T04:28:46;17.50;99.90
38860;DHT22;24609;48.316;16.174;2023-07-24T04:31:11;17.70;99.90
38860;DHT22;24609;48.316;16.174;2023-07-24T04:33:38;17.90;99.90
38860;DHT22;24609;48.316;16.174;2023-07-24T04:36:04;18.00;99.90
38860;DHT22;24609;48.316;16.174;2023-07-24T04:38:29;18.00;99.90
38860;DHT22;24609;48.316;16.174;2023-07-24T04:40:55;18.10;99.90
38860;DHT22;24609;48.316;16.174;2023-07-24T04:43:21;18.20;99.90
38860;DHT22;24609;48.316;16.174;2023-07-24T04:45:46;18.30;99.90
38860;DHT22;24609;48.316;16.174;2023-07-24T04:48:12;18.50;99.90
38860;DHT22;24609;48.316;16.174;2023-07-24T04:50:37;18.80;99.90
38860;DHT22;24609;48.316;16.174;2023-07-24T04:53:03;19.50;99.90
38860;DHT22;24609;48.316;16.174;2023-07-24T04:55:29;20.00;99.90
38860;DHT22;24609;48.316;16.174;2023-07-24T04:57:54;20.30;99.90
38860;DHT22;24609;48.316;16.174;2023-07-24T05:00:20;20.90;99.90
38860;DHT22;24609;48.316;16.174;2023-07-24T05:02:46;21.20;99.90
38860;DHT22;24609;48.316;16.174;2023-07-24T05:05:12;21.50;99.90
38860;DHT22;24609;48.316;16.174;2023-07-24T05:07:37;21.30;99.90
38860;DHT22;24609;48.316;16.174;2023-07-24T05:10:03;21.10;99.90
38860;DHT22;24609;48.316;16.174;2023-07-24T05:12:29;21.10;99.90
38860;DHT22;24609;48.316;16.174;2023-07-24T05:14:54;21.30;99.90
38860;DHT22;24609;48.316;16.174;2023-07-24T05:17:20;21.60;99.90
38860;DHT22;24609;48.316;16.174;2023-07-24T05:19:46;21.70;99.90
38860;DHT22;24609;48.316;16.174;2023-07-24T05:22:11;21.10;99.90
38860;DHT22;24609;48.316;16.174;2023-07-24T05:24:37;20.70;99.90
38860;DHT22;24609;48.316;16.174;2023-07-24T05:27:07;20.70;99.90
38860;DHT22;24609;48.316;16.174;2023-07-24T05:29:32;20.60;99.90
38860;DHT22;24609;48.316;16.174;2023-07-24T05:31:58;20.70;99.90
38860;DHT22;24609;48.316;16.174;2023-07-24T05:34:26;20.80;99.90
38860;DHT22;24609;48.316;16.174;2023-07-24T05:36:52;20.80;99.90
38860;DHT22;24609;48.316;16.174;2023-07-24T05:39:18;21.10;99.90
38860;DHT22;24609;48.316;16.174;2023-07-24T05:41:43;21.70;99.90
38860;DHT22;24609;48.316;16.174;2023-07-24T05:44:09;22.20;99.90
38860;DHT22;24609;48.316;16.174;2023-07-24T05:46:34;21.90;99.90
38860;DHT22;24609;48.316;16.174;2023-07-24T05:49:00;22.30;99.90
38860;DHT22;24609;48.316;16.174;2023-07-24T05:51:27;23.00;99.90
38860;DHT22;24609;48.316;16.174;2023-07-24T05:53:53;23.30;99.90
38860;DHT22;24609;48.316;16.174;2023-07-24T05:56:18;24.00;99.90
38860;DHT22;24609;48.316;16.174;2023-07-24T05:58:44;24.20;99.90
38860;DHT22;24609;48.316;16.174;2023-07-24T06:01:09;24.90;99.90
38860;DHT22;24609;48.316;16.174;2023-07-24T06:03:36;25.60;99.90
38860;DHT22;24609;48.316;16.174;2023-07-24T06:06:02;25.80;99.90
38860;DHT22;24609;48.316;16.174;2023-07-24T06:08:27;25.60;99.90
38860;DHT22;24609;48.316;16.174;2023-07-24T06:10:53;25.90;99.90
38860;DHT22;24609;48.316;16.174;2023-07-24T06:13:19;25.60;99.90
38860;DHT22;24609;48.316;16.174;2023-07-24T06:15:47;25.50;99.90
38860;DHT22;24609;48.316;16.174;2023-07-24T06:18:13;26.30;99.90
38860;DHT22;24609;48.316;16.174;2023-07-24T06:20:39;27.00;99.90
38860;DHT22;24609;48.316;16.174;2023-07-24T06:23:05;27.10;99.90
38860;DHT22;24609;48.316;16.174;2023-07-24T06:25:31;27.50;99.90
38860;DHT22;24609;48.316;16.174;2023-07-24T06:27:57;28.20;99.90
38860;DHT22;24609;48.316;16.174;2023-07-24T06:30:23;28.50;99.50
38860;DHT22;24609;48.316;16.174;2023-07-24T06:32:49;28.60;99.00
38860;DHT22;24609;48.316;16.174;2023-07-24T06:35:14;28.30;98.80
38860;DHT22;24609;48.316;16.174;2023-07-24T06:37:40;28.30;98.50
38860;DHT22;24609;48.316;16.174;2023-07-24T06:40:07;28.60;98.40
38860;DHT22;24609;48.316;16.174;2023-07-24T06:42:33;29.50;95.50
38860;DHT22;24609;48.316;16.174;2023-07-24T06:44:58;29.70;94.10
38860;DHT22;24609;48.316;16.174;2023-07-24T06:47:24;28.90;96.10
38860;DHT22;24609;48.316;16.174;2023-07-24T06:49:50;27.80;97.30
38860;DHT22;24609;48.316;16.174;2023-07-24T06:52:16;27.20;98.20
38860;DHT22;24609;48.316;16.174;2023-07-24T06:54:41;27.30;98.60
38860;DHT22;24609;48.316;16.174;2023-07-24T06:57:07;28.50;96.60
38860;DHT22;24609;48.316;16.174;2023-07-24T06:59:33;29.10;95.80
38860;DHT22;24609;48.316;16.174;2023-07-24T07:01:58;28.60;94.80
38860;DHT22;24609;48.316;16.174;2023-07-24T07:04:24;28.40;96.60
38860;DHT22;24609;48.316;16.174;2023-07-24T07:06:50;28.60;95.50
38860;DHT22;24609;48.316;16.174;2023-07-24T07:09:15;28.90;95.90
38860;DHT22;24609;48.316;16.174;2023-07-24T07:11:41;29.20;94.80
38860;DHT22;24609;48.316;16.174;2023-07-24T07:14:09;29.20;94.80
38860;DHT22;24609;48.316;16.174;2023-07-24T07:16:34;28.60;95.70
38860;DHT22;24609;48.316;16.174;2023-07-24T07:19:00;28.20;96.00
38860;DHT22;24609;48.316;16.174;2023-07-24T07:21:26;28.60;97.00
38860;DHT22;24609;48.316;16.174;2023-07-24T07:23:52;29.20;94.70
38860;DHT22;24609;48.316;16.174;2023-07-24T07:26:17;29.50;95.00
38860;DHT22;24609;48.316;16.174;2023-07-24T07:28:43;29.80;94.00
38860;DHT22;24609;48.316;16.174;2023-07-24T07:31:10;29.90;93.80
38860;DHT22;24609;48.316;16.174;2023-07-24T07:33:36;30.50;92.90
38860;DHT22;24609;48.316;16.174;2023-07-24T07:36:02;30.50;93.10
38860;DHT22;24609;48.316;16.174;2023-07-24T07:38:29;30.20;92.00
38860;DHT22;24609;48.316;16.174;2023-07-24T07:40:54;29.50;91.20
38860;DHT22;24609;48.316;16.174;2023-07-24T07:43:20;30.70;91.80
38860;DHT22;24609;48.316;16.174;2023-07-24T07:45:46;31.60;84.40
38860;DHT22;24609;48.316;16.174;2023-07-24T07:48:12;32.10;87.20
38860;DHT22;24609;48.316;16.174;2023-07-24T07:50:38;32.30;82.30
38860;DHT22;24609;48.316;16.174;2023-07-24T07:53:03;30.50;85.50
38860;DHT22;24609;48.316;16.174;2023-07-24T07:55:29;31.20;85.10
38860;DHT22;24609;48.316;16.174;2023-07-24T07:57:55;31.30;86.60
38860;DHT22;24609;48.316;16.174;2023-07-24T08:00:21;31.50;80.30
38860;DHT22;24609;48.316;16.174;2023-07-24T08:02:47;31.20;78.70
38860;DHT22;24609;48.316;16.174;2023-07-24T08:05:12;30.90;80.90
38860;DHT22;24609;48.316;16.174;2023-07-24T08:07:38;32.20;82.40
38860;DHT22;24609;48.316;16.174;2023-07-24T08:10:04;32.10;79.30
38860;DHT22;24609;48.316;16.174;2023-07-24T08:12:30;33.30;75.40
38860;DHT22;24609;48.316;16.174;2023-07-24T08:14:55;33.60;74.60
38860;DHT22;24609;48.316;16.174;2023-07-24T08:17:21;34.70;66.80
38860;DHT22;24609;48.316;16.174;2023-07-24T08:19:47;36.30;63.00
38860;DHT22;24609;48.316;16.174;2023-07-24T08:22:13;36.20;57.70
38860;DHT22;24609;48.316;16.174;2023-07-24T08:24:38;37.60;55.90
38860;DHT22;24609;48.316;16.174;2023-07-24T08:27:04;38.30;50.40
38860;DHT22;24609;48.316;16.174;2023-07-24T08:29:30;37.20;50.60
38860;DHT22;24609;48.316;16.174;2023-07-24T08:31:56;36.60;48.60
38860;DHT22;24609;48.316;16.174;2023-07-24T08:34:21;37.90;50.60
38860;DHT22;24609;48.316;16.174;2023-07-24T08:36:47;38.50;47.10
38860;DHT22;24609;48.316;16.174;2023-07-24T08:39:13;39.40;45.00
38860;DHT22;24609;48.316;16.174;2023-07-24T08:41:38;40.50;42.60
38860;DHT22;24609;48.316;16.174;2023-07-24T08:44:08;41.20;40.30
38860;DHT22;24609;48.316;16.174;2023-07-24T08:46:36;42.00;37.10
38860;DHT22;24609;48.316;16.174;2023-07-24T08:49:03;42.40;35.80
38860;DHT22;24609;48.316;16.174;2023-07-24T08:51:29;42.90;33.60
38860;DHT22;24609;48.316;16.174;2023-07-24T08:53:57;43.10;32.20
38860;DHT22;24609;48.316;16.174;2023-07-24T08:56:23;42.10;30.20
38860;DHT22;24609;48.316;16.174;2023-07-24T08:58:49;42.80;30.90
38860;DHT22;24609;48.316;16.174;2023-07-24T09:01:14;42.40;30.00
38860;DHT22;24609;48.316;16.174;2023-07-24T09:03:40;41.80;29.70
38860;DHT22;24609;48.316;16.174;2023-07-24T09:06:06;42.80;29.50
38860;DHT22;24609;48.316;16.174;2023-07-24T09:08:37;41.40;29.30
38860;DHT22;24609;48.316;16.174;2023-07-24T09:11:04;42.80;29.40
38860;DHT22;24609;48.316;16.174;2023-07-24T09:13:31;42.20;29.40
38860;DHT22;24609;48.316;16.174;2023-07-24T09:15:57;40.70;30.60
38860;DHT22;24609;48.316;16.174;2023-07-24T09:18:24;40.10;33.90
38860;DHT22;24609;48.316;16.174;2023-07-24T09:20:50;42.80;30.00
38860;DHT22;24609;48.316;16.174;2023-07-24T09:23:26;44.10;26.80
38860;DHT22;24609;48.316;16.174;2023-07-24T09:25:53;40.80;28.70
38860;DHT22;24609;48.316;16.174;2023-07-24T09:28:19;39.20;30.90
38860;DHT22;24609;48.316;16.174;2023-07-24T09:30:57;39.10;31.40
38860;DHT22;24609;48.316;16.174;2023-07-24T09:33:33;39.20;33.20
38860;DHT22;24609;48.316;16.174;2023-07-24T09:36:03;38.10;34.00
38860;DHT22;24609;48.316;16.174;2023-07-24T09:38:29;38.20;36.80
38860;DHT22;24609;48.316;16.174;2023-07-24T09:40:56;39.20;33.40
38860;DHT22;24609;48.316;16.174;2023-07-24T09:43:24;39.00;34.40
38860;DHT22;24609;48.316;16.174;2023-07-24T09:45:51;39.80;33.20
38860;DHT22;24609;48.316;16.174;2023-07-24T09:48:18;40.60;30.20
38860;DHT22;24609;48.316;16.174;2023-07-24T09:50:49;40.30;33.30
38860;DHT22;24609;48.316;16.174;2023-07-24T09:53:39;38.40;35.10
38860;DHT22;24609;48.316;16.174;2023-07-24T09:56:09;36.30;38.90
38860;DHT22;24609;48.316;16.174;2023-07-24T09:58:37;35.00;41.90
38860;DHT22;24609;48.316;16.174;2023-07-24T10:01:04;35.80;42.20
38860;DHT22;24609;48.316;16.174;2023-07-24T10:03:35;36.50;41.30
38860;DHT22;24609;48.316;16.174;2023-07-24T10:06:02;36.50;39.80
38860;DHT22;24609;48.316;16.174;2023-07-24T10:08:27;36.00;40.50
38860;DHT22;24609;48.316;16.174;2023-07-24T10:10:54;38.00;40.30
38860;DHT22;24609;48.316;16.174;2023-07-24T10:13:21;40.50;36.80
38860;DHT22;24609;48.316;16.174;2023-07-24T10:15:48;42.70;32.40
38860;DHT22;24609;48.316;16.174;2023-07-24T10:18:16;43.60;31.30
38860;DHT22;24609;48.316;16.174;2023-07-24T10:20:43;44.20;29.90
38860;DHT22;24609;48.316;16.174;2023-07-24T10:23:10;45.50;28.70
38860;DHT22;24609;48.316;16.174;2023-07-24T10:25:38;45.20;25.90
38860;DHT22;24609;48.316;16.174;2023-07-24T10:28:10;45.30;25.90
38860;DHT22;24609;48.316;16.174;2023-07-24T10:30:38;46.90;24.10
38860;DHT22;24609;48.316;16.174;2023-07-24T10:33:18;46.30;23.30
38860;DHT22;24609;48.316;16.174;2023-07-24T10:35:50;47.20;25.20
38860;DHT22;24609;48.316;16.174;2023-07-24T10:38:17;45.30;23.10
38860;DHT22;24609;48.316;16.174;2023-07-24T10:40:45;44.60;25.60
38860;DHT22;24609;48.316;16.174;2023-07-24T10:43:13;42.00;28.10
38860;DHT22;24609;48.316;16.174;2023-07-24T10:45:52;39.60;31.00
38860;DHT22;24609;48.316;16.174;2023-07-24T10:48:24;39.50;31.70
38860;DHT22;24609;48.316;16.174;2023-07-24T10:50:51;41.30;31.20
38860;DHT22;24609;48.316;16.174;2023-07-24T10:53:19;43.50;28.20
38860;DHT22;24609;48.316;16.174;2023-07-24T10:55:46;46.30;23.30
38860;DHT22;24609;48.316;16.174;2023-07-24T10:58:13;47.60;20.70
38860;DHT22;24609;48.316;16.174;2023-07-24T11:00:40;49.70;20.60
38860;DHT22;24609;48.316;16.174;2023-07-24T11:03:14;50.70;20.60
38860;DHT22;24609;48.316;16.174;2023-07-24T11:05:44;48.40;21.90
38860;DHT22;24609;48.316;16.174;2023-07-24T11:08:18;48.00;20.50
38860;DHT22;24609;48.316;16.174;2023-07-24T11:10:52;47.90;21.40
38860;DHT22;24609;48.316;16.174;2023-07-24T11:13:25;48.20;19.60
38860;DHT22;24609;48.316;16.174;2023-07-24T11:15:52;48.20;18.60
38860;DHT22;24609;48.316;16.174;2023-07-24T11:18:19;49.30;18.50
38860;DHT22;24609;48.316;16.174;2023-07-24T11:20:53;48.80;18.80
38860;DHT22;24609;48.316;16.174;2023-07-24T11:23:20;45.90;18.00
38860;DHT22;24609;48.316;16.174;2023-07-24T11:25:46;45.70;20.10
38860;DHT22;24609;48.316;16.174;2023-07-24T11:28:14;46.00;18.90
38860;DHT22;24609;48.316;16.174;2023-07-24T11:30:40;44.00;20.90
38860;DHT22;24609;48.316;16.174;2023-07-24T11:33:08;43.40;20.60
38860;DHT22;24609;48.316;16.174;2023-07-24T11:35:35;45.20;19.70
38860;DHT22;24609;48.316;16.174;2023-07-24T11:38:02;47.00;19.80
38860;DHT22;24609;48.316;16.174;2023-07-24T11:40:42;46.10;17.80
38860;DHT22;24609;48.316;16.174;2023-07-24T11:43:23;46.20;18.70
38860;DHT22;24609;48.316;16.174;2023-07-24T11:45:50;44.80;18.50
38860;DHT22;24609;48.316;16.174;2023-07-24T11:48:24;39.90;21.40
38860;DHT22;24609;48.316;16.174;2023-07-24T11:50:51;39.20;22.90
38860;DHT22;24609;48.316;16.174;2023-07-24T11:53:28;39.30;23.60
38860;DHT22;24609;48.316;16.174;2023-07-24T11:55:58;40.60;24.10
38860;DHT22;24609;48.316;16.174;2023-07-24T11:58:29;40.50;23.70
38860;DHT22;24609;48.316;16.174;2023-07-24T12:00:55;39.30;24.80
38860;DHT22;24609;48.316;16.174;2023-07-24T12:03:26;39.10;24.90
38860;DHT22;24609;48.316;16.174;2023-07-24T12:05:52;38.80;25.80
38860;DHT22;24609;48.316;16.174;2023-07-24T12:08:20;37.70;27.10
38860;DHT22;24609;48.316;16.174;2023-07-24T12:10:48;36.50;27.10
38860;DHT22;24609;48.316;16.174;2023-07-24T12:13:14;36.70;28.60
38860;DHT22;24609;48.316;16.174;2023-07-24T12:15:40;37.40;28.80
38860;DHT22;24609;48.316;16.174;2023-07-24T12:18:06;39.50;26.50
38860;DHT22;24609;48.316;16.174;2023-07-24T12:20:32;42.30;24.00
38860;DHT22;24609;48.316;16.174;2023-07-24T12:22:59;44.40;22.40
38860;DHT22;24609;48.316;16.174;2023-07-24T12:25:25;46.10;21.00
38860;DHT22;24609;48.316;16.174;2023-07-24T12:27:50;45.90;19.50
38860;DHT22;24609;48.316;16.174;2023-07-24T12:30:17;46.10;19.50
38860;DHT22;24609;48.316;16.174;2023-07-24T12:32:43;46.30;19.70
38860;DHT22;24609;48.316;16.174;2023-07-24T12:35:09;46.10;19.90
38860;DHT22;24609;48.316;16.174;2023-07-24T12:37:35;47.40;19.90
38860;DHT22;24609;48.316;16.174;2023-07-24T12:40:01;46.70;18.60
38860;DHT22;24609;48.316;16.174;2023-07-24T12:42:27;45.30;17.80
38860;DHT22;24609;48.316;16.174;2023-07-24T12:44:53;45.60;17.70
38860;DHT22;24609;48.316;16.174;2023-07-24T12:47:18;44.00;17.70
38860;DHT22;24609;48.316;16.174;2023-07-24T12:49:44;42.80;19.90
38860;DHT22;24609;48.316;16.174;2023-07-24T12:52:10;43.70;19.70
38860;DHT22;24609;48.316;16.174;2023-07-24T12:54:36;41.90;19.00
38860;DHT22;24609;48.316;16.174;2023-07-24T12:57:03;40.90;20.40
38860;DHT22;24609;48.316;16.174;2023-07-24T12:59:29;40.70;20.10
38860;DHT22;24609;48.316;16.174;2023-07-24T13:01:54;41.70;18.60
38860;DHT22;24609;48.316;16.174;2023-07-24T13:04:21;41.30;19.40
38860;DHT22;24609;48.316;16.174;2023-07-24T13:06:47;41.60;19.00
38860;DHT22;24609;48.316;16.174;2023-07-24T13:09:13;40.90;18.90
38860;DHT22;24609;48.316;16.174;2023-07-24T13:11:38;41.90;19.70
38860;DHT22;24609;48.316;16.174;2023-07-24T13:14:04;43.40;20.50
38860;DHT22;24609;48.316;16.174;2023-07-24T13:16:30;44.80;18.10
38860;DHT22;24609;48.316;16.174;2023-07-24T13:18:56;46.30;16.70
38860;DHT22;24609;48.316;16.174;2023-07-24T13:21:21;44.60;16.90
38860;DHT22;24609;48.316;16.174;2023-07-24T13:23:48;43.20;18.20
38860;DHT22;24609;48.316;16.174;2023-07-24T13:26:14;41.60;19.50
38860;DHT22;24609;48.316;16.174;2023-07-24T13:28:41;39.70;20.80
38860;DHT22;24609;48.316;16.174;2023-07-24T13:31:18;40.40;21.30
38860;DHT22;24609;48.316;16.174;2023-07-24T13:33:45;41.60;20.70
38860;DHT22;24609;48.316;16.174;2023-07-24T13:36:11;43.00;20.40
38860;DHT22;24609;48.316;16.174;2023-07-24T13:38:37;42.00;20.00
38860;DHT22;24609;48.316;16.174;2023-07-24T13:41:03;40.80;21.30
38860;DHT22;24609;48.316;16.174;2023-07-24T13:43:30;40.00;23.90
38860;DHT22;24609;48.316;16.174;2023-07-24T13:45:56;37.70;24.40
38860;DHT22;24609;48.316;16.174;2023-07-24T13:48:22;36.80;26.00
38860;DHT22;24609;48.316;16.174;2023-07-24T13:50:48;36.60;27.10
38860;DHT22;24609;48.316;16.174;2023-07-24T13:53:14;36.20;27.80
38860;DHT22;24609;48.316;16.174;2023-07-24T13:55:40;36.00;28.20
38860;DHT22;24609;48.316;16.174;2023-07-24T13:58:05;35.40;28.50
38860;DHT22;24609;48.316;16.174;2023-07-24T14:00:31;34.80;29.40
38860;DHT22;24609;48.316;16.174;2023-07-24T14:02:57;34.50;29.70
38860;DHT22;24609;48.316;16.174;2023-07-24T14:05:22;33.90;30.80
38860;DHT22;24609;48.316;16.174;2023-07-24T14:07:48;33.70;32.30
38860;DHT22;24609;48.316;16.174;2023-07-24T14:10:14;33.50;32.10
38860;DHT22;24609;48.316;16.174;2023-07-24T14:12:39;33.50;33.20
38860;DHT22;24609;48.316;16.174;2023-07-24T14:15:05;33.80;32.70
38860;DHT22;24609;48.316;16.174;2023-07-24T14:17:31;34.50;31.70
38860;DHT22;24609;48.316;16.174;2023-07-24T14:19:57;35.20;30.80
38860;DHT22;24609;48.316;16.174;2023-07-24T14:22:22;36.10;29.00
38860;DHT22;24609;48.316;16.174;2023-07-24T14:24:48;37.40;27.70
38860;DHT22;24609;48.316;16.174;2023-07-24T14:27:14;38.90;29.30
38860;DHT22;24609;48.316;16.174;2023-07-24T14:29:40;40.50;26.70
38860;DHT22;24609;48.316;16.174;2023-07-24T14:32:06;40.40;26.50
38860;DHT22;24609;48.316;16.174;2023-07-24T14:34:32;42.10;25.40
38860;DHT22;24609;48.316;16.174;2023-07-24T14:36:58;44.20;23.20
38860;DHT22;24609;48.316;16.174;2023-07-24T14:39:24;45.40;22.90
38860;DHT22;24609;48.316;16.174;2023-07-24T14:41:49;44.80;20.90
38860;DHT22;24609;48.316;16.174;2023-07-24T14:44:15;41.70;21.80
38860;DHT22;24609;48.316;16.174;2023-07-24T14:46:40;38.00;23.20
38860;DHT22;24609;48.316;16.174;2023-07-24T14:49:06;36.90;24.40
38860;DHT22;24609;48.316;16.174;2023-07-24T14:51:32;36.90;24.50
38860;DHT22;24609;48.316;16.174;2023-07-24T14:53:58;36.10;25.10
38860;DHT22;24609;48.316;16.174;2023-07-24T14:56:24;36.60;25.10
38860;DHT22;24609;48.316;16.174;2023-07-24T14:58:50;37.60;24.20
38860;DHT22;24609;48.316;16.174;2023-07-24T15:01:16;37.90;23.20
38860;DHT22;24609;48.316;16.174;2023-07-24T15:03:42;37.60;23.70
38860;DHT22;24609;48.316;16.174;2023-07-24T15:06:07;37.00;23.70
38860;DHT22;24609;48.316;16.174;2023-07-24T15:08:34;39.00;22.00
38860;DHT22;24609;48.316;16.174;2023-07-24T15:10:59;40.30;20.40
38860;DHT22;24609;48.316;16.174;2023-07-24T15:13:25;40.80;19.90
38860;DHT22;24609;48.316;16.174;2023-07-24T15:15:51;39.60;20.50
38860;DHT22;24609;48.316;16.174;2023-07-24T15:18:16;38.60;21.80